createdAt,value
2024-03-04T00:00:21.704Z,10.20
2024-03-04T00:03:11.060Z,10.90
2024-03-04T00:05:40.618Z,10.70
2024-03-04T00:08:09.353Z,10.90
2024-03-04T00:10:38.061Z,10.90
2024-03-04T00:13:07.778Z,11.60
2024-03-04T00:15:36.836Z,10.80
2024-03-04T00:18:05.646Z,11.10
2024-03-04T00:20:34.931Z,10.70
2024-03-04T00:23:06.575Z,11.60
2024-03-04T00:25:35.111Z,11.70
2024-03-04T00:28:05.241Z,11.50
2024-03-04T00:30:33.673Z,11.40
2024-03-04T00:33:02.034Z,11.50
2024-03-04T00:35:30.720Z,12.10
2024-03-04T00:37:59.720Z,11.90
2024-03-04T00:40:28.121Z,11.60
2024-03-04T00:42:56.929Z,12.00
2024-03-04T00:45:25.462Z,11.50
2024-03-04T00:47:53.969Z,11.40
2024-03-04T00:50:22.648Z,11.90
2024-03-04T00:52:51.104Z,12.00
2024-03-04T00:55:19.645Z,12.10
2024-03-04T00:57:48.103Z,12.00
2024-03-04T01:00:17.929Z,12.00
2024-03-04T01:02:46.406Z,11.90
2024-03-04T01:05:14.770Z,11.20
2024-03-04T01:07:43.694Z,11.50
2024-03-04T01:10:12.972Z,11.70
2024-03-04T01:12:41.734Z,11.80
2024-03-04T01:15:10.822Z,12.10
2024-03-04T01:17:40.333Z,12.30
2024-03-04T01:20:14.900Z,11.90
2024-03-04T01:22:43.530Z,11.50
2024-03-04T01:25:12.267Z,12.20
2024-03-04T01:27:41.007Z,12.40
2024-03-04T01:30:10.890Z,11.40
2024-03-04T01:32:39.232Z,12.30
2024-03-04T01:35:09.105Z,11.50
2024-03-04T01:37:38.841Z,12.50
2024-03-04T01:40:08.935Z,11.90
2024-03-04T01:42:37.565Z,12.40
2024-03-04T01:45:17.279Z,11.10
2024-03-04T01:47:45.903Z,11.70
2024-03-04T01:50:15.456Z,11.70
2024-03-04T01:52:44.191Z,12.00
2024-03-04T01:55:14.075Z,12.00
2024-03-04T01:57:43.278Z,12.20
2024-03-04T02:00:13.329Z,12.50
2024-03-04T02:02:42.441Z,12.00
2024-03-04T02:05:12.609Z,11.80
2024-03-04T02:07:42.202Z,12.20
2024-03-04T02:10:11.393Z,12.10
2024-03-04T02:12:40.927Z,12.40
2024-03-04T02:15:10.066Z,11.40
2024-03-04T02:17:39.041Z,10.90
2024-03-04T02:20:14.363Z,11.60
2024-03-04T02:22:43.761Z,11.10
2024-03-04T02:25:13.454Z,11.90
2024-03-04T02:27:43.799Z,11.80
2024-03-04T02:30:13.094Z,11.50
2024-03-04T02:32:43.643Z,11.20
2024-03-04T02:35:12.302Z,11.20
2024-03-04T02:37:41.124Z,10.70
2024-03-04T02:40:10.454Z,11.00
2024-03-04T02:42:40.297Z,11.00
2024-03-04T02:45:09.451Z,10.80
2024-03-04T02:47:38.126Z,10.80
2024-03-04T02:50:08.968Z,11.40
2024-03-04T02:52:37.982Z,11.90
2024-03-04T02:55:07.562Z,11.90
2024-03-04T02:57:36.202Z,12.30
2024-03-04T03:00:07.450Z,12.00
2024-03-04T03:02:36.242Z,11.70
2024-03-04T03:05:06.723Z,11.80
2024-03-04T03:07:36.290Z,12.00
2024-03-04T03:10:06.410Z,11.80
2024-03-04T03:12:35.700Z,11.10
2024-03-04T03:15:05.464Z,12.20
2024-03-04T03:17:34.009Z,11.90
2024-03-04T03:20:04.867Z,12.20
2024-03-04T03:22:33.560Z,12.10
2024-03-04T03:25:02.258Z,12.90
2024-03-04T03:27:30.704Z,12.50
2024-03-04T03:29:59.156Z,12.90
2024-03-04T03:32:27.574Z,13.00
2024-03-04T03:34:56.063Z,12.60
2024-03-04T03:37:25.080Z,13.10
2024-03-04T03:39:53.596Z,12.40
2024-03-04T03:42:23.005Z,12.80
2024-03-04T03:44:52.197Z,13.10
2024-03-04T03:47:21.186Z,13.40
2024-03-04T03:49:52.153Z,12.00
2024-03-04T03:52:20.460Z,12.40
2024-03-04T03:54:49.034Z,12.50
2024-03-04T03:57:17.908Z,12.60
2024-03-04T03:59:46.576Z,12.90
2024-03-04T04:02:15.628Z,13.60
2024-03-04T04:04:44.496Z,14.50
2024-03-04T04:07:13.220Z,13.70
2024-03-04T04:09:41.826Z,14.20
2024-03-04T04:12:10.504Z,14.10
2024-03-04T04:14:39.029Z,13.90
2024-03-04T04:17:07.430Z,14.00
2024-03-04T04:19:35.937Z,14.60
2024-03-04T04:22:05.163Z,14.60
2024-03-04T04:24:33.619Z,14.70
2024-03-04T04:27:02.624Z,14.40
2024-03-04T04:29:31.038Z,14.50
2024-03-04T04:32:01.428Z,15.40
2024-03-04T04:34:30.718Z,15.70
2024-03-04T04:37:00.593Z,15.80
2024-03-04T04:39:29.553Z,13.70
2024-03-04T04:41:58.636Z,14.30
2024-03-04T04:44:27.378Z,13.90
2024-03-04T04:46:55.900Z,14.30
2024-03-04T04:49:24.518Z,15.20
2024-03-04T04:51:53.285Z,14.30
2024-03-04T04:54:21.800Z,14.50
2024-03-04T04:56:52.310Z,15.10
2024-03-04T04:59:21.606Z,15.30
2024-03-04T05:01:50.252Z,14.70
2024-03-04T05:04:35.366Z,14.50
2024-03-04T05:07:08.872Z,15.60
2024-03-04T05:09:37.470Z,14.50
2024-03-04T05:12:06.516Z,15.40
2024-03-04T05:14:35.608Z,14.60
2024-03-04T05:17:04.724Z,15.20
2024-03-04T05:19:37.122Z,19.40
2024-03-04T05:22:08.052Z,16.60
2024-03-04T05:24:36.557Z,15.80
2024-03-04T05:27:05.528Z,14.70
2024-03-04T05:29:34.499Z,15.40
2024-03-04T05:32:05.619Z,16.10
2024-03-04T05:34:34.459Z,15.60
2024-03-04T05:37:03.524Z,14.80
2024-03-04T05:39:33.336Z,15.60
2024-03-04T05:42:02.140Z,15.30
2024-03-04T05:44:30.727Z,15.90
2024-03-04T05:46:59.485Z,16.00
2024-03-04T05:49:29.143Z,16.80
2024-03-04T05:52:00.512Z,16.30
2024-03-04T05:54:29.324Z,16.50
2024-03-04T05:56:58.013Z,16.70
2024-03-04T05:59:26.537Z,16.20
2024-03-04T06:01:55.763Z,16.30
2024-03-04T06:04:25.712Z,16.80
2024-03-04T06:06:54.304Z,16.70
2024-03-04T06:09:27.977Z,17.90
2024-03-04T06:12:00.075Z,17.30
2024-03-04T06:14:30.291Z,16.30
2024-03-04T06:16:59.504Z,17.10
2024-03-04T06:19:28.086Z,16.60
2024-03-04T06:22:05.301Z,17.80
2024-03-04T06:24:43.517Z,16.80
2024-03-04T06:27:12.164Z,15.80
2024-03-04T06:29:40.776Z,15.30
2024-03-04T06:32:09.346Z,15.80
2024-03-04T06:34:37.918Z,15.90
2024-03-04T06:37:06.631Z,15.80
2024-03-04T06:39:35.816Z,16.10
2024-03-04T06:42:04.575Z,15.70
2024-03-04T06:44:33.401Z,16.80
2024-03-04T06:47:01.849Z,16.20
2024-03-04T06:49:30.777Z,16.60
2024-03-04T06:51:59.526Z,16.90
2024-03-04T06:54:28.108Z,17.30
2024-03-04T06:56:57.047Z,16.90
2024-03-04T06:59:25.889Z,17.30
2024-03-04T07:01:54.613Z,17.10
2024-03-04T07:04:23.408Z,17.60
2024-03-04T07:06:51.958Z,18.10
2024-03-04T07:09:20.538Z,16.20
2024-03-04T07:11:49.336Z,17.90
2024-03-04T07:14:18.319Z,18.40
2024-03-04T07:16:46.825Z,17.90
2024-03-04T07:19:15.800Z,17.40
2024-03-04T07:21:44.536Z,17.50
2024-03-04T07:24:13.179Z,17.60
2024-03-04T07:26:41.961Z,17.30
2024-03-04T07:29:14.680Z,18.10
2024-03-04T07:31:50.960Z,17.20
2024-03-04T07:34:21.357Z,18.10
2024-03-04T07:36:49.818Z,17.60
2024-03-04T07:39:18.688Z,16.00
2024-03-04T07:41:47.378Z,17.50
2024-03-04T07:44:17.638Z,16.50
2024-03-04T07:46:49.457Z,17.40
2024-03-04T07:49:19.999Z,17.50
2024-03-04T07:51:48.811Z,17.60
2024-03-04T07:54:17.566Z,18.00
2024-03-04T07:56:48.818Z,18.50
2024-03-04T07:59:17.514Z,17.60
2024-03-04T08:01:47.505Z,18.90
2024-03-04T08:04:16.824Z,20.50
2024-03-04T08:06:45.943Z,20.40
2024-03-04T08:09:17.722Z,19.90
2024-03-04T08:11:49.409Z,21.50
2024-03-04T08:14:21.390Z,18.20
2024-03-04T08:16:53.254Z,21.10
2024-03-04T08:19:24.841Z,21.30
2024-03-04T08:22:01.669Z,20.00
2024-03-04T08:24:35.952Z,18.80
2024-03-04T08:27:05.270Z,20.30
2024-03-04T08:29:38.772Z,21.10
2024-03-04T08:32:23.313Z,20.90
2024-03-04T08:34:54.302Z,20.20
2024-03-04T08:37:29.923Z,20.70
2024-03-04T08:40:04.554Z,19.80
2024-03-04T08:42:43.722Z,20.30
2024-03-04T08:45:12.629Z,20.30
2024-03-04T08:47:44.280Z,20.70
2024-03-04T08:50:19.187Z,20.80
2024-03-04T08:52:48.155Z,21.00
2024-03-04T08:55:20.054Z,19.00
2024-03-04T08:57:52.411Z,19.80
2024-03-04T09:00:21.919Z,18.30
2024-03-04T09:02:50.827Z,19.90
2024-03-04T09:05:23.308Z,15.70
2024-03-04T09:07:52.316Z,17.70
2024-03-04T09:10:20.933Z,17.90
2024-03-04T09:12:52.308Z,17.80
2024-03-04T09:15:24.402Z,19.10
2024-03-04T09:17:53.713Z,19.60
2024-03-04T09:20:22.676Z,19.60
2024-03-04T09:22:53.705Z,19.20
2024-03-04T09:25:25.706Z,20.50
2024-03-04T09:27:57.429Z,19.70
2024-03-04T09:30:26.869Z,19.90
2024-03-04T09:32:56.145Z,20.70
2024-03-04T09:35:25.228Z,20.00
2024-03-04T09:37:56.308Z,20.00
2024-03-04T09:40:25.280Z,20.20
2024-03-04T09:42:54.367Z,19.50
2024-03-04T09:45:23.355Z,20.50
2024-03-04T09:47:56.889Z,19.90
2024-03-04T09:50:26.472Z,20.20
2024-03-04T09:52:59.862Z,20.20
2024-03-04T09:55:31.085Z,20.50
2024-03-04T09:58:00.425Z,17.60
2024-03-04T10:00:33.507Z,20.60
2024-03-04T10:03:08.753Z,19.80
2024-03-04T10:05:44.696Z,20.00
2024-03-04T10:08:13.378Z,18.20
2024-03-04T10:10:52.314Z,20.10
2024-03-04T10:13:22.453Z,19.20
2024-03-04T10:15:52.547Z,21.30
2024-03-04T10:18:24.374Z,20.90
2024-03-04T10:20:59.581Z,20.40
2024-03-04T10:23:28.427Z,20.60
2024-03-04T10:26:08.376Z,19.90
2024-03-04T10:28:41.890Z,18.70
2024-03-04T10:31:12.279Z,17.60
2024-03-04T10:33:43.968Z,18.90
2024-03-04T10:36:23.296Z,19.40
2024-03-04T10:38:53.941Z,18.40
2024-03-04T10:41:27.138Z,18.90
2024-03-04T10:43:58.255Z,19.50
2024-03-04T10:46:28.741Z,18.30
2024-03-04T10:48:58.508Z,18.60
2024-03-04T10:51:30.473Z,15.80
2024-03-04T10:54:01.407Z,16.60
2024-03-04T10:56:33.663Z,17.00
2024-03-04T10:59:06.059Z,18.90
2024-03-04T11:01:35.223Z,18.30
2024-03-04T11:04:06.016Z,19.60
2024-03-04T11:06:36.979Z,18.50
2024-03-04T11:09:11.547Z,19.10
2024-03-04T11:11:49.290Z,18.40
2024-03-04T11:14:23.372Z,16.90
2024-03-04T11:17:15.991Z,16.60
2024-03-04T11:19:58.162Z,15.60
2024-03-04T11:22:27.107Z,17.40
2024-03-04T11:24:58.107Z,17.20
2024-03-04T11:27:29.317Z,15.20
2024-03-04T11:29:59.085Z,13.60
2024-03-04T11:32:34.090Z,15.50
2024-03-04T11:35:08.943Z,12.10
2024-03-04T11:38:05.545Z,13.40
2024-03-04T11:40:37.244Z,14.40
2024-03-04T11:43:06.457Z,14.80
2024-03-04T11:45:40.530Z,15.60
2024-03-04T11:48:31.462Z,15.60
2024-03-04T11:51:02.518Z,15.40
2024-03-04T11:53:31.775Z,15.30
2024-03-04T11:56:03.976Z,15.30
2024-03-04T11:58:34.432Z,16.00
2024-03-04T12:01:13.070Z,16.20
2024-03-04T12:03:54.598Z,13.60
2024-03-04T12:06:23.962Z,15.30
2024-03-04T12:09:09.441Z,16.90
2024-03-04T12:11:42.964Z,15.00
2024-03-04T12:14:12.902Z,16.70
2024-03-04T12:16:42.242Z,17.10
2024-03-04T12:19:11.330Z,16.50
2024-03-04T12:21:40.198Z,18.10
2024-03-04T12:24:08.881Z,18.00
2024-03-04T12:26:37.862Z,15.70
2024-03-04T12:29:12.107Z,16.70
2024-03-04T12:31:41.054Z,14.70
2024-03-04T12:34:12.153Z,15.40
2024-03-04T12:36:50.487Z,14.00
2024-03-04T12:39:23.327Z,13.20
2024-03-04T12:41:52.637Z,13.60
2024-03-04T12:44:24.540Z,13.40
2024-03-04T12:46:54.307Z,13.00
2024-03-04T12:49:26.284Z,12.50
2024-03-04T12:52:04.178Z,13.20
2024-03-04T12:54:36.746Z,13.70
2024-03-04T12:57:05.380Z,17.40
2024-03-04T12:59:34.125Z,16.50
2024-03-04T13:02:03.024Z,16.10
2024-03-04T13:04:37.593Z,17.50
2024-03-04T13:07:09.785Z,16.30
2024-03-04T13:09:38.694Z,17.40
2024-03-04T13:12:10.578Z,18.20
2024-03-04T13:14:41.588Z,22.00
2024-03-04T13:17:15.367Z,21.20
2024-03-04T13:19:45.754Z,23.00
2024-03-04T13:22:14.460Z,20.00
2024-03-04T13:24:45.346Z,25.10
2024-03-04T13:27:14.345Z,24.00
2024-03-04T13:29:43.331Z,24.90
2024-03-04T13:32:12.528Z,24.00
2024-03-04T13:34:45.117Z,28.10
2024-03-04T13:37:14.337Z,25.50
2024-03-04T13:39:47.114Z,24.60
2024-03-04T13:42:17.035Z,25.90
2024-03-04T13:44:52.650Z,26.30
2024-03-04T13:47:22.282Z,25.30
2024-03-04T13:49:53.432Z,24.90
2024-03-04T13:52:22.344Z,24.80
2024-03-04T13:54:52.933Z,24.60
2024-03-04T13:57:22.090Z,27.20
2024-03-04T13:59:52.243Z,27.60
2024-03-04T14:02:21.186Z,26.90
2024-03-04T14:04:52.583Z,28.90
2024-03-04T14:07:23.807Z,25.90
2024-03-04T14:09:52.520Z,24.30
2024-03-04T14:12:21.100Z,27.00
2024-03-04T14:14:52.241Z,27.60
2024-03-04T14:17:20.929Z,24.80
2024-03-04T14:19:49.575Z,25.70
2024-03-04T14:22:19.223Z,27.00
2024-03-04T14:24:48.425Z,25.70
2024-03-04T14:27:19.463Z,26.10
2024-03-04T14:29:49.070Z,28.80
2024-03-04T14:32:18.374Z,27.30
2024-03-04T14:34:47.581Z,24.20
2024-03-04T14:37:16.379Z,27.90
2024-03-04T14:39:45.649Z,22.70
2024-03-04T14:42:14.365Z,26.20
2024-03-04T14:44:46.208Z,27.70
2024-03-04T14:47:15.262Z,26.50
2024-03-04T14:49:48.096Z,26.70
2024-03-04T14:52:18.917Z,26.70
2024-03-04T14:54:47.945Z,23.80
2024-03-04T14:57:18.034Z,23.20
2024-03-04T14:59:46.686Z,26.00
2024-03-04T15:02:16.434Z,27.20
2024-03-04T15:04:45.565Z,19.70
2024-03-04T15:07:14.471Z,27.10
2024-03-04T15:09:43.504Z,26.20
2024-03-04T15:12:12.596Z,27.60
2024-03-04T15:14:43.845Z,23.60
2024-03-04T15:17:13.968Z,24.20
2024-03-04T15:19:42.963Z,25.70
2024-03-04T15:22:11.882Z,25.40
2024-03-04T15:24:41.257Z,24.70
2024-03-04T15:27:10.243Z,25.30
2024-03-04T15:29:39.247Z,24.40
2024-03-04T15:32:08.061Z,24.00
2024-03-04T15:34:38.800Z,23.60
2024-03-04T15:37:08.305Z,24.90
2024-03-04T15:39:37.483Z,20.00
2024-03-04T15:42:12.248Z,24.90
2024-03-04T15:44:41.489Z,23.90
2024-03-04T15:47:10.300Z,24.80
2024-03-04T15:49:42.621Z,23.00
2024-03-04T15:52:11.806Z,25.60
2024-03-04T15:54:42.908Z,25.40
2024-03-04T15:57:12.515Z,22.10
2024-03-04T15:59:46.352Z,25.10
2024-03-04T16:02:16.329Z,26.10
2024-03-04T16:04:50.666Z,24.10
2024-03-04T16:07:19.550Z,23.20
2024-03-04T16:09:48.748Z,27.00
2024-03-04T16:12:17.826Z,24.50
2024-03-04T16:14:46.782Z,23.80
2024-03-04T16:17:15.615Z,22.10
2024-03-04T16:19:44.830Z,24.90
2024-03-04T16:22:14.263Z,22.70
2024-03-04T16:24:44.762Z,23.80
2024-03-04T16:27:17.223Z,25.30
2024-03-04T16:29:46.834Z,25.90
2024-03-04T16:32:16.088Z,26.00
2024-03-04T16:34:46.169Z,21.30
2024-03-04T16:37:14.852Z,26.30
2024-03-04T16:39:44.669Z,25.30
2024-03-04T16:42:15.070Z,23.70
2024-03-04T16:44:44.174Z,25.50
2024-03-04T16:47:13.777Z,24.50
2024-03-04T16:49:43.421Z,23.90
2024-03-04T16:52:12.505Z,23.10
2024-03-04T16:54:42.754Z,22.60
2024-03-04T16:57:15.715Z,19.80
2024-03-04T16:59:45.701Z,22.80
2024-03-04T17:02:14.863Z,21.30
2024-03-04T17:04:43.839Z,22.50
2024-03-04T17:07:13.208Z,23.90
2024-03-04T17:09:42.500Z,22.00
2024-03-04T17:12:12.334Z,23.90
2024-03-04T17:14:41.049Z,19.00
2024-03-04T17:17:11.682Z,24.00
2024-03-04T17:19:42.617Z,24.00
2024-03-04T17:22:12.147Z,23.40
2024-03-04T17:24:42.382Z,22.10
2024-03-04T17:27:11.297Z,17.70
2024-03-04T17:29:44.046Z,22.20
2024-03-04T17:32:13.498Z,19.50
2024-03-04T17:34:46.614Z,20.80
2024-03-04T17:37:15.931Z,20.80
2024-03-04T17:39:45.948Z,20.80
2024-03-04T17:42:15.286Z,22.00
2024-03-04T17:44:45.001Z,21.00
2024-03-04T17:47:14.087Z,22.00
2024-03-04T17:49:52.579Z,22.80
2024-03-04T17:52:23.044Z,19.70
2024-03-04T17:54:56.185Z,20.60
2024-03-04T17:57:27.793Z,22.10
2024-03-04T17:59:57.360Z,21.20
2024-03-04T18:02:27.591Z,21.70
2024-03-04T18:04:56.545Z,19.60
2024-03-04T18:07:25.931Z,20.60
2024-03-04T18:09:55.412Z,21.70
2024-03-04T18:12:24.851Z,20.50
2024-03-04T18:14:53.841Z,19.80
2024-03-04T18:17:24.021Z,16.30
2024-03-04T18:19:53.392Z,20.20
2024-03-04T18:22:22.575Z,20.40
2024-03-04T18:24:54.767Z,19.90
2024-03-04T18:27:23.908Z,21.40
2024-03-04T18:29:56.115Z,18.40
2024-03-04T18:32:25.377Z,21.10
2024-03-04T18:34:54.704Z,20.20
2024-03-04T18:37:25.641Z,21.00
2024-03-04T18:39:57.688Z,21.10
2024-03-04T18:42:26.951Z,22.70
2024-03-04T18:44:56.717Z,21.60
2024-03-04T18:47:26.154Z,21.60
2024-03-04T18:49:56.785Z,19.00
2024-03-04T18:52:27.937Z,16.80
2024-03-04T18:54:57.960Z,20.00
2024-03-04T18:57:27.686Z,21.90
2024-03-04T18:59:58.355Z,20.40
2024-03-04T19:02:28.759Z,21.70
2024-03-04T19:04:57.851Z,18.60
2024-03-04T19:07:26.773Z,22.80
2024-03-04T19:09:56.475Z,21.10
2024-03-04T19:12:29.217Z,21.20
2024-03-04T19:14:58.476Z,22.80
2024-03-04T19:17:27.510Z,22.00
2024-03-04T19:19:56.724Z,21.30
2024-03-04T19:22:26.039Z,22.20
2024-03-04T19:24:54.996Z,22.90
2024-03-04T19:27:27.583Z,22.10
2024-03-04T19:29:57.405Z,20.20
2024-03-04T19:32:27.033Z,23.10
2024-03-04T19:34:56.447Z,20.90
2024-03-04T19:37:26.033Z,22.70
2024-03-04T19:39:55.001Z,22.80
2024-03-04T19:42:24.366Z,21.00
2024-03-04T19:44:55.983Z,22.30
2024-03-04T19:47:30.515Z,22.20
2024-03-04T19:50:02.475Z,22.90
2024-03-04T19:52:33.108Z,22.10
2024-03-04T19:55:04.666Z,22.90
2024-03-04T19:57:40.385Z,20.30
2024-03-04T20:00:12.216Z,20.60
2024-03-04T20:02:42.540Z,23.00
2024-03-04T20:05:13.853Z,22.20
2024-03-04T20:07:46.054Z,22.20
2024-03-04T20:10:17.203Z,21.00
2024-03-04T20:12:47.826Z,21.00
2024-03-04T20:15:17.011Z,21.30
2024-03-04T20:17:47.737Z,21.70
2024-03-04T20:20:18.216Z,21.50
2024-03-04T20:22:50.051Z,22.00
2024-03-04T20:25:19.870Z,18.00
2024-03-04T20:27:49.689Z,18.80
2024-03-04T20:30:19.654Z,22.50
2024-03-04T20:32:49.219Z,23.50
2024-03-04T20:35:20.819Z,22.00
2024-03-04T20:37:51.778Z,24.50
2024-03-04T20:40:20.926Z,21.30
2024-03-04T20:42:50.102Z,22.20
2024-03-04T20:45:19.722Z,23.80
2024-03-04T20:47:49.334Z,22.50
2024-03-04T20:50:19.638Z,24.60
2024-03-04T20:52:49.561Z,19.90
2024-03-04T20:55:19.135Z,20.80
2024-03-04T20:57:52.895Z,23.10
2024-03-04T21:00:22.285Z,23.10
2024-03-04T21:02:53.285Z,20.50
2024-03-04T21:05:24.542Z,23.40
2024-03-04T21:07:55.868Z,22.90
2024-03-04T21:10:26.022Z,23.70
2024-03-04T21:12:57.256Z,17.80
2024-03-04T21:15:26.380Z,20.40
2024-03-04T21:17:58.336Z,20.60
2024-03-04T21:20:29.706Z,22.10
2024-03-04T21:23:04.313Z,22.40
2024-03-04T21:25:33.251Z,21.50
2024-03-04T21:28:02.919Z,21.90
2024-03-04T21:30:31.906Z,17.00
2024-03-04T21:33:01.103Z,20.10
2024-03-04T21:35:30.740Z,18.80
2024-03-04T21:37:59.738Z,18.70
2024-03-04T21:40:29.897Z,17.90
2024-03-04T21:42:58.711Z,17.80
2024-03-04T21:45:28.021Z,18.40
2024-03-04T21:47:57.061Z,19.10
2024-03-04T21:50:26.318Z,18.80
2024-03-04T21:52:56.017Z,19.60
2024-03-04T21:55:25.549Z,19.50
2024-03-04T21:57:54.240Z,17.90
2024-03-04T22:00:24.056Z,19.70
2024-03-04T22:02:52.819Z,18.80
2024-03-04T22:05:21.336Z,19.70
2024-03-04T22:07:50.080Z,18.00
2024-03-04T22:10:19.209Z,20.20
2024-03-04T22:12:47.992Z,20.20
2024-03-04T22:15:16.755Z,18.00
2024-03-04T22:17:48.320Z,20.60
2024-03-04T22:20:17.653Z,19.10
2024-03-04T22:22:46.404Z,17.30
2024-03-04T22:25:15.422Z,21.70
2024-03-04T22:27:43.990Z,21.40
2024-03-04T22:30:13.123Z,20.50
2024-03-04T22:32:41.687Z,20.00
2024-03-04T22:35:11.765Z,20.40
2024-03-04T22:37:40.594Z,21.70
2024-03-04T22:40:12.988Z,20.70
2024-03-04T22:42:41.836Z,21.10
2024-03-04T22:45:10.429Z,21.20
2024-03-04T22:47:39.256Z,20.20
2024-03-04T22:50:11.118Z,20.90
2024-03-04T22:52:40.310Z,20.20
2024-03-04T22:55:10.764Z,20.10
2024-03-04T22:57:39.586Z,20.50
2024-03-04T23:00:14.086Z,21.60
2024-03-04T23:02:43.139Z,18.60
2024-03-04T23:05:11.777Z,20.10
2024-03-04T23:07:40.283Z,21.10
2024-03-04T23:10:11.197Z,21.20
2024-03-04T23:12:39.780Z,20.80
2024-03-04T23:15:10.443Z,22.60
2024-03-04T23:17:39.455Z,18.30
2024-03-04T23:20:12.193Z,22.70
2024-03-04T23:22:41.527Z,20.30
2024-03-04T23:25:10.739Z,18.40
2024-03-04T23:27:40.705Z,19.70
2024-03-04T23:30:13.790Z,18.30
2024-03-04T23:32:42.516Z,20.30
2024-03-04T23:35:11.796Z,20.10
2024-03-04T23:37:40.593Z,20.80
2024-03-04T23:40:14.249Z,18.30
2024-03-04T23:42:44.237Z,16.00
2024-03-04T23:45:14.780Z,20.50
2024-03-04T23:47:44.170Z,15.70
2024-03-04T23:50:14.009Z,20.40
2024-03-04T23:52:43.081Z,18.70
2024-03-04T23:55:12.258Z,19.20
2024-03-04T23:57:40.998Z,20.00
